メインページ
METAR-TAF:

METAR-TAF

空港 :

レスブリッジ, アルバータ州, カナダ

緯度: 49-38N, 経度: 112-48W, 海抜: 929m

現時点の気象観測

当レポートは1時間17分前の05:00(UTC)に作成
南/南西の風 9kt
気温 -7°C
湿度 67%
気圧 1024 hPa
視程: 24.1km
晴天

METAR: CYQL 200500Z 20009KT 15SM SKC M07/M12 A3024 RMK LAST STFD OBS/NXT 201300Z SLP300

時間: 23:17 (06:17 UTC)

予報

当レポートは39分前の05:38(UTC)に作成
予報は20日の 06時(UTC)から 20日の 18時(UTC)まで有効
南西の風 10kt
視程: 10km
晴天
20日の 09時(UTC)から 20日の 11時(UTC)まで徐々に
南西の風 15kt
20日の 1400時(UTC)から
南西の風 20kt、最大30ktの突風を伴う
視程: 10km
晴天

TAF: CYQL 200538Z 2006/2018 22010KT P6SM SKC BECMG 2009/2011 22015KT FM201400 23020G30KT P6SM SKC RMK FCST BASED ON AUTO OBS. NXT FCST BY 201200Z

4,000以上の空港の気象観測と天気予報(METAR報とTAF報)

利用可能な観測所は地図上に黄色い丸と赤い丸で示す。

丸の上にカーソルを重ねると観測所名を参照できる。

次にクリックすると気象観測と天気予報を参照できる。

マップの切り替え:黒色「×」印の緑ボタンをクリックして拡大、「-」印の緑ボタンをクリックして縮小、緑色の三角印をクリックして隣りの地図に切り替え


METAR-TAF: